Time;durP1;ratioP1;P1;durP2;ratioP2;P2;SDS_P1;SDS_P2;PMS_P1;PMS_P2;Temp;Humidity;BMP_temperature;BMP_pressure;BME280_temperature;BME280_humidity;BME280_pressure;Samples;Min_cycle;Max_cycle;Signal;HPM_P1;HPM_P2
2021/05/13 00:02:23;;;;;;;25.17;22.57;;;;;;;;;;5043123;28;20471;-64
2021/05/13 00:04:49;;;;;;;25.73;22.17;;;;;;;;;;5047860;28;20977;-65
2021/05/13 00:07:16;;;;;;;23.93;21.43;;;;;;;;;;5049740;28;20459;-63
2021/05/13 00:09:44;;;;;;;24.57;22.10;;;;;;;;;;5050512;28;20939;-63
2021/05/13 00:12:25;;;;;;;25.77;23.07;;;;;;;;;;5031703;28;20555;-63
2021/05/13 00:14:51;;;;;;;26.00;22.07;;;;;;;;;;5050897;28;20447;-63
2021/05/13 00:17:19;;;;;;;26.10;21.93;;;;;;;;;;5053709;28;20460;-63
2021/05/13 00:19:45;;;;;;;29.27;23.30;;;;;;;;;;5053380;28;20482;-63
2021/05/13 00:22:12;;;;;;;27.97;23.10;;;;;;;;;;5054629;28;20448;-63
2021/05/13 00:24:39;;;;;;;27.90;23.27;;;;;;;;;;5051779;28;20463;-64
2021/05/13 00:27:07;;;;;;;30.47;24.07;;;;;;;;;;5054088;28;20832;-63
2021/05/13 00:29:34;;;;;;;27.00;24.10;;;;;;;;;;5054052;28;20645;-63
2021/05/13 00:32:00;;;;;;;27.20;23.93;;;;;;;;;;5053331;28;20506;-63
2021/05/13 00:34:28;;;;;;;26.73;23.67;;;;;;;;;;5051982;28;20470;-63
2021/05/13 00:36:54;;;;;;;25.27;22.40;;;;;;;;;;5053517;28;20454;-63
2021/05/13 00:39:21;;;;;;;30.50;24.40;;;;;;;;;;5053732;28;20494;-63
2021/05/13 00:41:48;;;;;;;28.57;24.47;;;;;;;;;;5053535;28;20987;-64
2021/05/13 00:44:14;;;;;;;29.73;24.53;;;;;;;;;;5053168;28;20471;-64
2021/05/13 00:46:41;;;;;;;29.80;25.67;;;;;;;;;;5053474;28;20820;-64
2021/05/13 00:49:10;;;;;;;32.90;24.87;;;;;;;;;;5053137;28;20470;-64
2021/05/13 00:51:38;;;;;;;31.00;24.87;;;;;;;;;;5052324;28;21028;-64
2021/05/13 00:54:04;;;;;;;30.30;24.70;;;;;;;;;;5053108;28;20468;-64
2021/05/13 00:56:32;;;;;;;28.90;24.13;;;;;;;;;;5053711;28;20444;-64
2021/05/13 00:59:02;;;;;;;31.50;25.13;;;;;;;;;;5052644;28;20479;-64
2021/05/13 01:01:48;;;;;;;29.67;24.67;;;;;;;;;;5053493;28;20994;-64
2021/05/13 01:04:15;;;;;;;32.23;25.93;;;;;;;;;;5050894;28;20455;-64
2021/05/13 01:06:42;;;;;;;28.83;23.50;;;;;;;;;;5053652;28;20444;-64
2021/05/13 01:09:11;;;;;;;30.37;23.90;;;;;;;;;;5052749;28;20459;-64
2021/05/13 01:11:40;;;;;;;29.90;25.00;;;;;;;;;;5053561;28;20562;-64
2021/05/13 01:14:16;;;;;;;29.93;23.30;;;;;;;;;;5052946;28;20464;-64
2021/05/13 01:16:51;;;;;;;27.40;24.00;;;;;;;;;;5053272;28;20444;-64
2021/05/13 01:19:18;;;;;;;29.00;24.10;;;;;;;;;;5052510;28;20487;-63
2021/05/13 01:21:46;;;;;;;28.90;25.23;;;;;;;;;;5053279;28;20574;-63
2021/05/13 01:24:13;;;;;;;30.53;24.77;;;;;;;;;;5051473;28;21033;-63
2021/05/13 01:26:43;;;;;;;31.90;25.80;;;;;;;;;;5051788;28;20931;-64
2021/05/13 01:29:09;;;;;;;28.80;24.80;;;;;;;;;;5052811;28;20448;-63
2021/05/13 01:31:36;;;;;;;27.53;24.00;;;;;;;;;;5051747;28;20490;-63
2021/05/13 01:34:05;;;;;;;28.33;23.20;;;;;;;;;;5051876;28;20467;-63
2021/05/13 01:36:31;;;;;;;29.37;26.13;;;;;;;;;;5052709;28;20451;-63
2021/05/13 01:38:59;;;;;;;28.97;24.93;;;;;;;;;;5046240;28;20997;-63
2021/05/13 01:41:26;;;;;;;26.87;23.80;;;;;;;;;;5052006;28;20493;-63
2021/05/13 01:43:52;;;;;;;29.17;25.40;;;;;;;;;;5053009;28;21008;-63
2021/05/13 01:46:19;;;;;;;27.27;23.27;;;;;;;;;;5050882;28;20464;-63
2021/05/13 01:48:45;;;;;;;28.20;25.07;;;;;;;;;;5052240;28;20460;-63
2021/05/13 01:51:12;;;;;;;27.33;24.43;;;;;;;;;;5052649;28;20472;-63
2021/05/13 01:53:39;;;;;;;26.97;24.17;;;;;;;;;;5050310;28;20471;-63
2021/05/13 01:56:07;;;;;;;26.90;24.00;;;;;;;;;;5049643;28;20478;-64
2021/05/13 01:58:34;;;;;;;29.23;26.03;;;;;;;;;;5051660;28;20496;-63
2021/05/13 02:01:00;;;;;;;25.23;22.33;;;;;;;;;;5052278;28;20479;-64
2021/05/13 02:03:27;;;;;;;30.10;23.40;;;;;;;;;;5051725;28;20472;-63
2021/05/13 02:05:54;;;;;;;29.13;24.73;;;;;;;;;;5051665;28;20463;-64
2021/05/13 02:08:20;;;;;;;30.33;24.67;;;;;;;;;;5049598;28;20478;-64
2021/05/13 02:10:47;;;;;;;27.77;22.97;;;;;;;;;;5052382;28;20797;-63
2021/05/13 02:13:15;;;;;;;26.73;23.97;;;;;;;;;;5050234;28;20471;-63
2021/05/13 02:15:41;;;;;;;28.53;25.43;;;;;;;;;;5052472;28;20919;-64
2021/05/13 02:18:08;;;;;;;24.80;22.17;;;;;;;;;;5049316;28;20478;-64
2021/05/13 02:20:35;;;;;;;27.60;24.60;;;;;;;;;;5052072;28;20998;-64
2021/05/13 02:23:01;;;;;;;27.07;24.20;;;;;;;;;;5050417;28;20464;-64
2021/05/13 02:25:31;;;;;;;29.47;25.40;;;;;;;;;;5051464;28;20847;-64
2021/05/13 02:27:58;;;;;;;31.53;25.33;;;;;;;;;;5050640;28;20468;-64
2021/05/13 02:30:25;;;;;;;29.47;25.00;;;;;;;;;;5051248;28;20490;-64
2021/05/13 02:32:52;;;;;;;30.30;24.50;;;;;;;;;;5052660;28;20451;-64
2021/05/13 02:35:19;;;;;;;28.73;24.60;;;;;;;;;;5051646;28;20464;-64
2021/05/13 02:37:46;;;;;;;28.70;25.30;;;;;;;;;;5049907;28;20677;-64
2021/05/13 02:40:13;;;;;;;34.30;24.50;;;;;;;;;;5052190;28;21132;-64
2021/05/13 02:42:40;;;;;;;34.03;26.87;;;;;;;;;;5050350;28;20474;-64
2021/05/13 02:45:08;;;;;;;32.43;25.50;;;;;;;;;;5051649;28;20843;-64
2021/05/13 02:47:35;;;;;;;29.03;24.50;;;;;;;;;;5050490;28;20459;-63
2021/05/13 02:50:02;;;;;;;32.73;28.20;;;;;;;;;;5051007;28;20460;-64
2021/05/13 02:52:29;;;;;;;28.50;24.53;;;;;;;;;;5049485;28;20468;-64
2021/05/13 02:54:55;;;;;;;32.23;26.57;;;;;;;;;;5050914;28;20533;-64
2021/05/13 02:57:22;;;;;;;30.53;26.30;;;;;;;;;;5050398;28;20513;-64
2021/05/13 02:59:52;;;;;;;34.00;26.60;;;;;;;;;;5049832;28;20488;-64
2021/05/13 03:02:18;;;;;;;32.77;26.13;;;;;;;;;;5051370;28;20547;-63
2021/05/13 03:04:46;;;;;;;32.80;27.10;;;;;;;;;;5050190;28;20469;-63
2021/05/13 03:07:13;;;;;;;31.73;27.30;;;;;;;;;;5050119;28;20474;-63
2021/05/13 03:09:43;;;;;;;32.50;25.87;;;;;;;;;;5050784;28;20549;-63
2021/05/13 03:12:10;;;;;;;35.90;27.50;;;;;;;;;;5050670;28;20468;-64
2021/05/13 03:14:37;;;;;;;36.40;27.77;;;;;;;;;;5049508;28;20983;-64
2021/05/13 03:17:04;;;;;;;36.70;27.90;;;;;;;;;;5050969;28;20466;-64
2021/05/13 03:19:34;;;;;;;35.47;28.40;;;;;;;;;;5049479;28;20487;-64
2021/05/13 03:22:06;;;;;;;30.73;27.10;;;;;;;;;;5044413;28;20491;-64
2021/05/13 03:24:37;;;;;;;34.30;26.10;;;;;;;;;;5050746;28;20463;-64
2021/05/13 03:27:11;;;;;;;36.33;28.73;;;;;;;;;;5051260;28;20462;-64
2021/05/13 03:29:38;;;;;;;35.83;29.77;;;;;;;;;;5049345;28;20558;-64
2021/05/13 03:32:05;;;;;;;35.47;27.70;;;;;;;;;;5049710;28;20482;-64
2021/05/13 03:34:31;;;;;;;37.20;29.43;;;;;;;;;;5048997;28;20493;-64
2021/05/13 03:36:58;;;;;;;36.33;28.57;;;;;;;;;;5049561;28;20491;-64
2021/05/13 03:39:25;;;;;;;36.17;28.63;;;;;;;;;;5051059;28;20479;-63
2021/05/13 03:41:52;;;;;;;38.03;30.20;;;;;;;;;;5050915;28;20476;-64
2021/05/13 03:44:19;;;;;;;31.43;27.93;;;;;;;;;;5050283;28;21022;-64
2021/05/13 03:46:45;;;;;;;30.23;26.53;;;;;;;;;;5049995;28;20471;-64
2021/05/13 03:49:12;;;;;;;37.70;28.80;;;;;;;;;;5053586;28;21176;-63
2021/05/13 03:51:39;;;;;;;33.17;28.60;;;;;;;;;;5035236;28;20517;-63
2021/05/13 03:54:05;;;;;;;32.67;26.67;;;;;;;;;;5051472;28;20472;-64
2021/05/13 03:56:33;;;;;;;34.50;27.70;;;;;;;;;;5054856;28;20806;-64
2021/05/13 03:59:03;;;;;;;33.53;27.40;;;;;;;;;;5053013;28;20479;-63
2021/05/13 04:01:43;;;;;;;34.30;26.50;;;;;;;;;;5047779;28;20489;-63
2021/05/13 04:04:10;;;;;;;30.00;25.80;;;;;;;;;;5053539;28;20839;-63
2021/05/13 04:06:37;;;;;;;35.83;29.57;;;;;;;;;;5053415;28;20992;-63
2021/05/13 04:09:07;;;;;;;32.57;28.97;;;;;;;;;;5052471;28;20455;-63
2021/05/13 04:11:35;;;;;;;34.17;30.57;;;;;;;;;;5053895;28;20533;-63
2021/05/13 04:14:02;;;;;;;32.90;29.60;;;;;;;;;;5053545;28;20961;-63
2021/05/13 04:16:29;;;;;;;32.77;28.50;;;;;;;;;;5054804;28;20448;-63
2021/05/13 04:18:56;;;;;;;36.10;30.63;;;;;;;;;;5053466;28;20594;-64
2021/05/13 04:21:22;;;;;;;36.40;29.70;;;;;;;;;;5053411;28;20549;-64
2021/05/13 04:23:49;;;;;;;34.43;30.90;;;;;;;;;;5052886;28;20986;-64
2021/05/13 04:26:16;;;;;;;33.47;29.37;;;;;;;;;;5054279;28;20542;-64
2021/05/13 04:28:43;;;;;;;33.47;29.93;;;;;;;;;;5051791;28;20471;-64
2021/05/13 04:31:10;;;;;;;33.23;29.60;;;;;;;;;;5053786;28;20483;-64
2021/05/13 04:33:36;;;;;;;32.53;29.23;;;;;;;;;;5052901;28;20463;-64
2021/05/13 04:36:03;;;;;;;34.33;29.87;;;;;;;;;;5051628;28;20462;-63
2021/05/13 04:38:30;;;;;;;35.00;30.97;;;;;;;;;;5054433;28;20452;-63
2021/05/13 04:40:57;;;;;;;34.47;30.77;;;;;;;;;;5051576;28;22505;-64
2021/05/13 04:43:23;;;;;;;33.20;29.50;;;;;;;;;;5054548;28;20456;-64
2021/05/13 04:45:51;;;;;;;32.20;28.80;;;;;;;;;;5051707;28;20472;-64
2021/05/13 04:48:19;;;;;;;32.30;28.87;;;;;;;;;;5034391;28;20824;-64
2021/05/13 04:50:46;;;;;;;32.50;28.40;;;;;;;;;;5050193;28;20530;-64
2021/05/13 04:53:14;;;;;;;34.80;29.10;;;;;;;;;;5054115;28;20452;-64
2021/05/13 04:55:41;;;;;;;31.47;28.27;;;;;;;;;;5052673;28;20468;-64
2021/05/13 04:58:08;;;;;;;34.00;29.77;;;;;;;;;;5052546;28;20872;-64
2021/05/13 05:00:35;;;;;;;33.63;30.03;;;;;;;;;;5052330;28;20506;-64
2021/05/13 05:03:03;;;;;;;33.20;29.73;;;;;;;;;;5052314;28;20478;-64
2021/05/13 05:05:30;;;;;;;33.87;28.97;;;;;;;;;;5051519;28;20890;-64
2021/05/13 05:07:56;;;;;;;30.97;27.67;;;;;;;;;;5052119;28;20463;-64
2021/05/13 05:10:23;;;;;;;30.53;27.27;;;;;;;;;;5053643;28;20468;-64
2021/05/13 05:12:50;;;;;;;27.40;24.70;;;;;;;;;;5052959;28;20491;-64
2021/05/13 05:15:16;;;;;;;28.87;25.90;;;;;;;;;;5053574;28;20474;-64
2021/05/13 05:17:43;;;;;;;28.83;25.93;;;;;;;;;;5051703;28;20471;-64
2021/05/13 05:20:12;;;;;;;29.03;26.03;;;;;;;;;;5052041;28;20947;-64
2021/05/13 05:22:38;;;;;;;29.40;26.60;;;;;;;;;;5052728;28;21344;-64
2021/05/13 05:25:06;;;;;;;26.83;24.20;;;;;;;;;;5053374;28;20528;-64
2021/05/13 05:27:32;;;;;;;28.60;25.63;;;;;;;;;;5051860;28;20792;-64
2021/05/13 05:29:59;;;;;;;26.60;23.90;;;;;;;;;;5051550;28;20471;-64
2021/05/13 05:32:25;;;;;;;26.30;23.73;;;;;;;;;;5051099;28;20460;-64
2021/05/13 05:34:52;;;;;;;27.77;25.00;;;;;;;;;;5052456;28;20517;-64
2021/05/13 05:37:20;;;;;;;27.10;24.30;;;;;;;;;;5051780;28;20455;-63
2021/05/13 05:39:46;;;;;;;25.07;22.43;;;;;;;;;;5052187;28;20528;-63
2021/05/13 05:42:13;;;;;;;24.13;21.60;;;;;;;;;;5052829;28;20951;-63
2021/05/13 05:44:39;;;;;;;25.30;22.83;;;;;;;;;;5052033;28;20570;-63
2021/05/13 05:47:06;;;;;;;23.87;21.77;;;;;;;;;;5052563;28;20458;-63
2021/05/13 05:49:33;;;;;;;23.50;21.17;;;;;;;;;;5051901;28;20467;-63
2021/05/13 05:51:59;;;;;;;23.83;21.37;;;;;;;;;;5050540;28;20494;-63
2021/05/13 05:54:27;;;;;;;24.47;22.27;;;;;;;;;;5052347;28;20468;-63
2021/05/13 05:56:53;;;;;;;24.67;22.13;;;;;;;;;;5052074;28;20452;-63
2021/05/13 05:59:20;;;;;;;25.57;22.87;;;;;;;;;;5051052;28;20487;-64
2021/05/13 06:01:47;;;;;;;25.40;23.00;;;;;;;;;;5051762;28;20565;-64
2021/05/13 06:04:13;;;;;;;26.97;24.27;;;;;;;;;;5052670;28;20897;-64
2021/05/13 06:06:40;;;;;;;26.90;24.27;;;;;;;;;;5050775;28;20463;-64
2021/05/13 06:09:08;;;;;;;25.73;23.03;;;;;;;;;;5051947;28;20997;-63
2021/05/13 06:11:35;;;;;;;26.20;23.60;;;;;;;;;;5050591;28;20484;-63
2021/05/13 06:14:02;;;;;;;11.50;7.50;;;;;;;;;;5051669;28;20468;-64
2021/05/13 06:16:28;;;;;;;10.77;7.10;;;;;;;;;;5051489;28;20444;-62
2021/05/13 06:18:56;;;;;;;11.80;8.97;;;;;;;;;;5052023;28;20487;-61
2021/05/13 06:21:23;;;;;;;8.47;7.80;;;;;;;;;;5050733;28;20537;-62
2021/05/13 06:23:51;;;;;;;12.53;11.30;;;;;;;;;;5051305;28;20475;-61
2021/05/13 06:26:21;;;;;;;12.73;11.53;;;;;;;;;;5047061;28;20463;-62
2021/05/13 06:28:48;;;;;;;14.37;13.00;;;;;;;;;;5051503;28;20972;-61
2021/05/13 06:31:15;;;;;;;13.63;12.60;;;;;;;;;;5050898;28;20545;-61
2021/05/13 06:33:42;;;;;;;13.07;11.97;;;;;;;;;;5052216;28;20446;-61
2021/05/13 06:36:08;;;;;;;11.60;10.80;;;;;;;;;;5045910;28;20959;-61
2021/05/13 06:38:35;;;;;;;11.50;10.63;;;;;;;;;;5035765;28;20475;-61
2021/05/13 06:41:05;;;;;;;10.37;9.57;;;;;;;;;;5049284;28;20484;-62
2021/05/13 06:43:31;;;;;;;10.90;9.90;;;;;;;;;;5052035;28;20478;-62
2021/05/13 06:45:59;;;;;;;9.67;8.77;;;;;;;;;;5050486;28;20463;-62
2021/05/13 06:48:25;;;;;;;9.47;8.67;;;;;;;;;;5051471;28;20826;-61
2021/05/13 06:50:52;;;;;;;9.30;8.50;;;;;;;;;;5050491;28;20483;-61
2021/05/13 06:53:19;;;;;;;7.90;7.20;;;;;;;;;;5047571;28;20464;-61
2021/05/13 06:55:51;;;;;;;8.73;7.90;;;;;;;;;;5045716;28;20474;-62
2021/05/13 06:58:18;;;;;;;10.30;9.30;;;;;;;;;;5032105;28;20433;-62
2021/05/13 07:00:44;;;;;;;13.63;12.10;;;;;;;;;;5043804;28;20545;-62
2021/05/13 07:03:12;;;;;;;11.63;10.40;;;;;;;;;;5051190;28;20810;-62
2021/05/13 07:05:38;;;;;;;9.10;8.20;;;;;;;;;;5051215;28;20514;-62
2021/05/13 07:08:05;;;;;;;9.83;8.57;;;;;;;;;;5051702;28;20822;-61
2021/05/13 07:10:32;;;;;;;10.03;9.00;;;;;;;;;;5051442;28;20510;-61
2021/05/13 07:12:58;;;;;;;10.40;9.30;;;;;;;;;;5049571;28;20815;-62
2021/05/13 07:15:25;;;;;;;9.97;8.60;;;;;;;;;;5051331;28;20462;-62
2021/05/13 07:17:52;;;;;;;6.80;6.17;;;;;;;;;;5048091;28;20464;-62
2021/05/13 07:20:20;;;;;;;7.20;6.60;;;;;;;;;;5047662;28;20518;-62
2021/05/13 07:22:47;;;;;;;7.40;6.70;;;;;;;;;;5044802;28;20464;-62
2021/05/13 07:25:14;;;;;;;6.40;5.80;;;;;;;;;;5044632;28;20441;-62
2021/05/13 07:27:40;;;;;;;8.67;7.87;;;;;;;;;;5043616;28;20461;-63
2021/05/13 07:30:08;;;;;;;8.00;7.03;;;;;;;;;;5048728;28;20975;-62
2021/05/13 07:32:34;;;;;;;8.40;7.33;;;;;;;;;;5042271;28;20452;-61
2021/05/13 07:35:01;;;;;;;9.10;7.20;;;;;;;;;;5051285;28;20452;-61
2021/05/13 07:37:29;;;;;;;5.20;4.70;;;;;;;;;;5046813;28;20448;-61
2021/05/13 07:39:55;;;;;;;7.53;6.73;;;;;;;;;;5050379;28;20502;-61
2021/05/13 07:42:22;;;;;;;6.00;5.40;;;;;;;;;;5051653;28;20467;-62
2021/05/13 07:44:49;;;;;;;6.27;5.60;;;;;;;;;;5042879;28;20889;-62
2021/05/13 07:47:17;;;;;;;8.07;7.27;;;;;;;;;;5046032;28;20448;-62
2021/05/13 07:49:44;;;;;;;8.67;7.53;;;;;;;;;;5051151;28;20455;-61
2021/05/13 07:52:11;;;;;;;5.90;5.30;;;;;;;;;;5043691;28;20450;-61
2021/05/13 07:54:39;;;;;;;7.80;6.70;;;;;;;;;;5051741;28;20447;-62
2021/05/13 07:57:07;;;;;;;7.67;6.87;;;;;;;;;;5051101;28;20479;-62
2021/05/13 07:59:34;;;;;;;8.00;6.60;;;;;;;;;;5051711;28;20498;-62
2021/05/13 08:02:01;;;;;;;10.63;8.63;;;;;;;;;;5051300;28;20521;-62
2021/05/13 08:04:29;;;;;;;9.20;8.20;;;;;;;;;;5050748;28;20532;-61
2021/05/13 08:06:55;;;;;;;7.33;6.10;;;;;;;;;;5038936;28;20620;-62
2021/05/13 08:09:22;;;;;;;10.80;4.87;;;;;;;;;;5051159;28;20872;-61
2021/05/13 08:11:49;;;;;;;4.63;4.23;;;;;;;;;;5051442;28;20478;-62
2021/05/13 08:14:16;;;;;;;4.77;3.50;;;;;;;;;;5049907;28;21097;-62
2021/05/13 08:16:43;;;;;;;5.40;4.50;;;;;;;;;;5051191;28;20569;-61
2021/05/13 08:19:09;;;;;;;5.80;4.93;;;;;;;;;;5050201;28;20483;-61
2021/05/13 08:21:36;;;;;;;6.63;5.53;;;;;;;;;;5050097;28;20488;-62
2021/05/13 08:24:03;;;;;;;4.40;3.97;;;;;;;;;;5050750;28;20466;-62
2021/05/13 08:26:30;;;;;;;4.97;3.87;;;;;;;;;;5051594;28;20474;-62
2021/05/13 08:28:58;;;;;;;3.90;3.50;;;;;;;;;;5051047;28;20549;-62
2021/05/13 08:31:24;;;;;;;7.07;4.90;;;;;;;;;;5051368;28;20517;-61
2021/05/13 08:33:51;;;;;;;4.67;4.17;;;;;;;;;;5051723;28;20470;-61
2021/05/13 08:36:18;;;;;;;6.47;5.03;;;;;;;;;;5049682;28;20447;-61
2021/05/13 08:38:44;;;;;;;4.00;3.67;;;;;;;;;;5053494;28;20455;-61
2021/05/13 08:41:11;;;;;;;5.23;3.27;;;;;;;;;;5053231;28;20472;-61
2021/05/13 08:43:37;;;;;;;4.83;4.13;;;;;;;;;;5051105;28;20472;-61
2021/05/13 08:46:05;;;;;;;6.20;4.07;;;;;;;;;;5044945;28;20469;-61
2021/05/13 08:48:31;;;;;;;4.00;3.60;;;;;;;;;;5054128;28;20947;-61
2021/05/13 08:50:59;;;;;;;3.97;3.60;;;;;;;;;;5051306;28;20472;-61
2021/05/13 08:53:26;;;;;;;3.43;3.13;;;;;;;;;;5052966;28;20826;-61
2021/05/13 08:55:53;;;;;;;3.90;2.80;;;;;;;;;;5050871;28;20470;-61
2021/05/13 08:58:19;;;;;;;3.13;2.33;;;;;;;;;;5052848;28;21067;-61
2021/05/13 09:00:52;;;;;;;2.50;2.30;;;;;;;;;;5050910;28;20519;-61
2021/05/13 09:03:32;;;;;;;2.70;2.27;;;;;;;;;;5047026;28;20443;-62
2021/05/13 09:05:59;;;;;;;3.40;2.90;;;;;;;;;;5038284;28;20978;-61
2021/05/13 09:08:26;;;;;;;3.70;2.57;;;;;;;;;;5051506;28;20974;-61
2021/05/13 09:10:52;;;;;;;3.27;2.97;;;;;;;;;;5051424;28;20463;-61
2021/05/13 09:13:28;;;;;;;5.83;3.50;;;;;;;;;;5050915;28;20452;-62
2021/05/13 09:15:55;;;;;;;3.57;2.57;;;;;;;;;;5051556;28;20455;-61
2021/05/13 09:18:31;;;;;;;3.67;2.57;;;;;;;;;;5048142;28;20730;-61
2021/05/13 09:21:04;;;;;;;2.53;2.33;;;;;;;;;;5031726;28;20496;-61
2021/05/13 09:23:31;;;;;;;3.90;3.00;;;;;;;;;;5049586;28;21045;-62
2021/05/13 09:26:08;;;;;;;6.13;3.93;;;;;;;;;;5051692;28;20498;-62
2021/05/13 09:28:34;;;;;;;4.70;3.17;;;;;;;;;;5051431;28;20464;-61
2021/05/13 09:31:01;;;;;;;6.87;3.10;;;;;;;;;;5049644;28;20990;-63
2021/05/13 09:33:28;;;;;;;4.17;3.10;;;;;;;;;;5041757;28;20540;-63
2021/05/13 09:35:55;;;;;;;5.23;4.43;;;;;;;;;;5048979;28;20471;-63
2021/05/13 09:38:33;;;;;;;4.90;3.40;;;;;;;;;;5051876;28;20464;-63
2021/05/13 09:41:00;;;;;;;5.70;3.07;;;;;;;;;;5046416;28;20499;-62
2021/05/13 09:43:31;;;;;;;4.53;2.80;;;;;;;;;;5051278;28;20459;-63
2021/05/13 09:45:58;;;;;;;5.83;3.80;;;;;;;;;;5050844;28;20531;-63
2021/05/13 09:48:36;;;;;;;3.20;2.90;;;;;;;;;;5050365;28;20463;-63
2021/05/13 09:51:16;;;;;;;4.57;4.17;;;;;;;;;;5048509;28;20494;-62
2021/05/13 09:53:43;;;;;;;5.37;4.80;;;;;;;;;;5036593;28;20460;-63
2021/05/13 09:56:27;;;;;;;4.40;4.00;;;;;;;;;;5052600;28;20459;-63
2021/05/13 09:58:54;;;;;;;6.07;3.27;;;;;;;;;;5052719;28;20534;-63
2021/05/13 10:01:20;;;;;;;3.03;2.73;;;;;;;;;;5045993;28;20979;-63
2021/05/13 10:03:47;;;;;;;5.47;4.00;;;;;;;;;;5047819;28;20477;-63
2021/05/13 10:06:14;;;;;;;3.40;3.10;;;;;;;;;;5047061;28;20470;-63
2021/05/13 10:08:43;;;;;;;3.73;2.60;;;;;;;;;;5043344;28;20458;-63
2021/05/13 10:11:10;;;;;;;3.07;2.77;;;;;;;;;;5052714;28;20498;-63
2021/05/13 10:13:37;;;;;;;3.33;2.77;;;;;;;;;;5052171;28;20505;-63
2021/05/13 10:16:05;;;;;;;3.33;3.03;;;;;;;;;;5051336;22;20858;-69
2021/05/13 10:18:35;;;;;;;4.33;2.90;;;;;;;;;;4998652;28;20460;-69
2021/05/13 10:21:05;;;;;;;2.80;2.50;;;;;;;;;;5007510;28;20477;-69
2021/05/13 10:23:32;;;;;;;4.30;3.47;;;;;;;;;;5012295;28;20446;-68
2021/05/13 10:25:59;;;;;;;4.13;2.30;;;;;;;;;;5011144;28;20564;-68
2021/05/13 10:28:30;;;;;;;3.40;2.53;;;;;;;;;;5010761;28;20449;-69
2021/05/13 10:31:02;;;;;;;2.20;2.00;;;;;;;;;;5012025;28;20453;-69
2021/05/13 10:33:43;;;;;;;2.70;2.30;;;;;;;;;;5007791;28;20469;-68
2021/05/13 10:36:14;;;;;;;4.10;2.93;;;;;;;;;;4995464;28;20517;-69
2021/05/13 10:38:48;;;;;;;4.33;3.10;;;;;;;;;;5011743;28;20453;-69
2021/05/13 10:41:36;;;;;;;5.10;3.77;;;;;;;;;;5004653;28;20564;-70
2021/05/13 10:44:21;;;;;;;5.43;2.67;;;;;;;;;;5010734;28;20509;-67
2021/05/13 10:46:53;;;;;;;4.83;3.47;;;;;;;;;;5009508;28;20846;-66
2021/05/13 10:49:20;;;;;;;3.20;2.90;;;;;;;;;;5011695;28;20499;-67
2021/05/13 10:51:48;;;;;;;5.43;2.77;;;;;;;;;;5011038;28;20454;-68
2021/05/13 10:54:40;;;;;;;4.30;3.17;;;;;;;;;;5011403;28;20464;-67
2021/05/13 10:57:12;;;;;;;4.87;3.80;;;;;;;;;;5009748;28;20881;-66
2021/05/13 10:59:39;;;;;;;5.63;2.53;;;;;;;;;;5012213;28;20544;-68
2021/05/13 11:02:06;;;;;;;3.63;2.47;;;;;;;;;;5009748;28;20454;-68
2021/05/13 11:04:36;;;;;;;4.37;3.13;;;;;;;;;;5012310;28;20453;-67
2021/05/13 11:07:04;;;;;;;3.73;2.63;;;;;;;;;;5002267;28;20477;-67
2021/05/13 11:09:53;;;;;;;2.77;2.43;;;;;;;;;;5012299;28;20501;-67
2021/05/13 11:12:20;;;;;;;3.90;3.53;;;;;;;;;;5003366;28;20937;-67
2021/05/13 11:15:09;;;;;;;6.00;2.90;;;;;;;;;;4995779;28;20459;-68
2021/05/13 11:17:56;;;;;;;3.10;2.80;;;;;;;;;;5003569;28;20960;-68
2021/05/13 11:20:25;;;;;;;3.77;3.47;;;;;;;;;;4993344;28;20549;-68
2021/05/13 11:22:52;;;;;;;3.03;2.73;;;;;;;;;;4997069;28;20454;-68
2021/05/13 11:25:19;;;;;;;2.87;2.67;;;;;;;;;;5011389;28;20923;-67
2021/05/13 11:27:46;;;;;;;3.53;3.13;;;;;;;;;;5006853;28;20881;-68
2021/05/13 11:30:13;;;;;;;4.03;3.60;;;;;;;;;;4992127;28;21082;-67
2021/05/13 11:32:40;;;;;;;3.17;2.97;;;;;;;;;;5002285;28;20544;-68
2021/05/13 11:35:07;;;;;;;3.63;2.30;;;;;;;;;;4991831;28;20447;-68
2021/05/13 11:37:36;;;;;;;4.23;3.87;;;;;;;;;;4994893;28;20466;-68
2021/05/13 11:40:32;;;;;;;3.47;3.17;;;;;;;;;;4993281;28;20482;-68
2021/05/13 11:43:14;;;;;;;4.00;3.60;;;;;;;;;;4950706;28;20449;-68
2021/05/13 11:45:41;;;;;;;4.27;3.87;;;;;;;;;;4986555;28;20573;-65
2021/05/13 11:48:18;;;;;;;3.00;2.00;;;;;;;;;;5010555;28;20521;-68
2021/05/13 11:50:45;;;;;;;2.80;2.50;;;;;;;;;;5010105;28;20455;-68
2021/05/13 11:53:14;;;;;;;2.20;2.00;;;;;;;;;;5010163;28;20953;-67
2021/05/13 11:55:41;;;;;;;2.80;1.90;;;;;;;;;;5011677;28;20476;-68
2021/05/13 11:58:08;;;;;;;2.40;2.20;;;;;;;;;;5010127;28;20560;-66
2021/05/13 12:00:34;;;;;;;2.70;2.43;;;;;;;;;;4992907;28;20482;-67
2021/05/13 12:03:14;;;;;;;3.67;3.37;;;;;;;;;;5007174;28;20454;-67
2021/05/13 12:05:45;;;;;;;3.03;2.30;;;;;;;;;;4991668;28;20532;-67
2021/05/13 12:08:14;;;;;;;3.27;2.97;;;;;;;;;;4998422;28;20450;-67
2021/05/13 12:10:41;;;;;;;3.13;2.80;;;;;;;;;;4995730;28;20451;-67
2021/05/13 12:13:07;;;;;;;3.30;3.00;;;;;;;;;;5001703;28;20453;-68
2021/05/13 12:15:34;;;;;;;2.70;2.20;;;;;;;;;;4995339;28;20487;-65
2021/05/13 12:18:01;;;;;;;3.60;3.30;;;;;;;;;;5007425;28;20601;-67
2021/05/13 12:20:28;;;;;;;3.40;2.90;;;;;;;;;;5007996;28;20485;-68
2021/05/13 12:22:54;;;;;;;2.73;2.53;;;;;;;;;;4999708;28;20490;-67
2021/05/13 12:25:22;;;;;;;2.43;1.90;;;;;;;;;;4994827;28;20876;-67
2021/05/13 12:27:49;;;;;;;3.33;3.03;;;;;;;;;;5009444;28;20457;-67
2021/05/13 12:30:18;;;;;;;4.40;4.00;;;;;;;;;;5014929;28;20449;-67
2021/05/13 12:32:45;;;;;;;2.90;2.60;;;;;;;;;;5002032;28;20456;-67
2021/05/13 12:35:22;;;;;;;3.67;3.37;;;;;;;;;;4995065;28;20466;-63
2021/05/13 12:37:49;;;;;;;3.53;3.23;;;;;;;;;;5004205;28;20532;-67
2021/05/13 12:40:17;;;;;;;3.93;3.57;;;;;;;;;;5005855;28;20489;-67
2021/05/13 12:42:45;;;;;;;3.20;2.93;;;;;;;;;;5012974;28;20458;-67
2021/05/13 12:45:15;;;;;;;4.03;3.13;;;;;;;;;;5013858;28;20960;-64
2021/05/13 12:47:42;;;;;;;4.00;2.90;;;;;;;;;;4996503;28;20490;-68
2021/05/13 12:50:09;;;;;;;4.20;3.80;;;;;;;;;;4994764;28;20451;-67
2021/05/13 12:52:36;;;;;;;3.67;3.37;;;;;;;;;;4994775;28;20460;-68
2021/05/13 12:55:13;;;;;;;3.00;2.70;;;;;;;;;;5001347;28;20454;-67
2021/05/13 12:57:40;;;;;;;3.90;3.60;;;;;;;;;;4996801;28;20458;-67
2021/05/13 13:00:08;;;;;;;3.30;3.00;;;;;;;;;;4995779;28;20497;-68
2021/05/13 13:02:35;;;;;;;2.90;2.70;;;;;;;;;;4995290;28;20505;-67
2021/05/13 13:05:03;;;;;;;2.67;2.47;;;;;;;;;;5000489;28;20442;-68
2021/05/13 13:07:37;;;;;;;2.97;2.77;;;;;;;;;;4998253;28;20457;-68
2021/05/13 13:10:22;;;;;;;3.67;3.10;;;;;;;;;;5007209;28;20458;-68
2021/05/13 13:12:49;;;;;;;2.53;2.27;;;;;;;;;;4994415;28;20511;-67
2021/05/13 13:15:34;;;;;;;2.60;2.40;;;;;;;;;;5006421;28;20485;-67
2021/05/13 13:18:02;;;;;;;4.13;3.80;;;;;;;;;;4997648;28;21017;-67
2021/05/13 13:20:29;;;;;;;3.50;3.13;;;;;;;;;;5004453;28;20514;-67
2021/05/13 13:22:56;;;;;;;3.30;2.97;;;;;;;;;;4996642;28;20479;-68
2021/05/13 13:25:23;;;;;;;4.23;3.83;;;;;;;;;;5013169;28;20477;-67
2021/05/13 13:27:50;;;;;;;3.30;3.00;;;;;;;;;;5012581;28;20485;-67
2021/05/13 13:30:19;;;;;;;2.80;2.50;;;;;;;;;;5009318;28;20524;-68
2021/05/13 13:32:48;;;;;;;3.27;2.90;;;;;;;;;;5012329;28;20587;-69
2021/05/13 13:35:22;;;;;;;2.97;2.67;;;;;;;;;;5006080;28;20857;-68
2021/05/13 13:37:49;;;;;;;4.47;3.33;;;;;;;;;;5010108;28;20461;-67
2021/05/13 13:40:15;;;;;;;3.37;3.17;;;;;;;;;;5002384;28;20569;-66
2021/05/13 13:42:42;;;;;;;2.77;2.57;;;;;;;;;;5008148;28;20472;-68
2021/05/13 13:45:09;;;;;;;2.57;2.33;;;;;;;;;;5010942;28;20449;-67
2021/05/13 13:47:36;;;;;;;3.60;3.20;;;;;;;;;;4993935;28;20450;-68
2021/05/13 13:50:04;;;;;;;4.40;4.10;;;;;;;;;;5008862;28;20450;-67
2021/05/13 13:52:30;;;;;;;3.57;3.27;;;;;;;;;;5012852;28;20476;-67
2021/05/13 13:54:57;;;;;;;4.03;3.60;;;;;;;;;;5012092;28;20453;-67
2021/05/13 13:57:23;;;;;;;4.33;4.00;;;;;;;;;;4994426;28;20454;-68
2021/05/13 13:59:50;;;;;;;4.97;4.53;;;;;;;;;;4993923;28;20482;-67
2021/05/13 14:02:17;;;;;;;6.00;5.50;;;;;;;;;;4993860;28;20455;-67
2021/05/13 14:04:44;;;;;;;6.57;6.00;;;;;;;;;;5006152;28;20457;-67
2021/05/13 14:07:11;;;;;;;4.90;4.50;;;;;;;;;;4996480;28;20477;-68
2021/05/13 14:09:40;;;;;;;5.60;5.20;;;;;;;;;;5005010;28;20445;-68
2021/05/13 14:12:06;;;;;;;4.53;4.07;;;;;;;;;;5012258;28;20553;-67
2021/05/13 14:14:33;;;;;;;3.60;3.30;;;;;;;;;;5008352;28;20504;-66
2021/05/13 14:17:00;;;;;;;3.80;3.43;;;;;;;;;;4999042;28;20482;-67
2021/05/13 14:19:26;;;;;;;3.50;3.20;;;;;;;;;;5001519;28;20804;-68
2021/05/13 14:21:53;;;;;;;3.27;3.00;;;;;;;;;;5012236;28;20453;-66
2021/05/13 14:24:20;;;;;;;4.87;3.80;;;;;;;;;;5004950;28;20453;-67
2021/05/13 14:26:47;;;;;;;4.90;4.50;;;;;;;;;;4993113;28;20478;-68
2021/05/13 14:29:14;;;;;;;3.70;3.40;;;;;;;;;;4998808;28;20461;-66
2021/05/13 14:31:40;;;;;;;4.10;3.77;;;;;;;;;;4997426;28;20985;-67
2021/05/13 14:34:07;;;;;;;3.80;3.50;;;;;;;;;;4993146;28;20815;-68
2021/05/13 14:36:33;;;;;;;4.13;3.83;;;;;;;;;;4997752;28;20477;-66
2021/05/13 14:39:00;;;;;;;2.43;2.23;;;;;;;;;;4993137;28;20455;-67